Time;durP1;ratioP1;P1;durP2;ratioP2;P2;SDS_P1;SDS_P2;PMS_P1;PMS_P2;Temp;Humidity;BMP_temperature;BMP_pressure;BME280_temperature;BME280_humidity;BME280_pressure;Samples;Min_cycle;Max_cycle;Signal;HPM_P1;HPM_P2
2024/01/31 00:01:17;;;;;;;31.05;12.35;;;;;;;-0.37;100.00;100013.94;5096156;28;20059;-67
2024/01/31 00:03:43;;;;;;;35.55;13.52;;;;;;;-0.25;100.00;100025.25;5095953;28;20056;-67
2024/01/31 00:06:10;;;;;;;27.15;12.90;;;;;;;-0.23;100.00;100012.31;5096247;28;20167;-66
2024/01/31 00:08:36;;;;;;;26.02;11.57;;;;;;;-0.21;100.00;99993.97;5095969;28;20088;-65
2024/01/31 00:11:03;;;;;;;22.60;11.10;;;;;;;-0.13;100.00;99979.94;5099286;28;20094;-65
2024/01/31 00:13:29;;;;;;;24.25;11.18;;;;;;;-0.14;100.00;99964.84;5099401;28;20048;-67
2024/01/31 00:15:55;;;;;;;27.58;14.00;;;;;;;-0.23;100.00;99977.28;5099831;28;20048;-67
2024/01/31 00:18:22;;;;;;;24.95;11.43;;;;;;;-0.14;100.00;99991.00;5099517;28;20048;-65
2024/01/31 00:20:48;;;;;;;29.27;13.25;;;;;;;-0.22;100.00;100010.44;5099206;28;20044;-66
2024/01/31 00:23:14;;;;;;;31.52;11.90;;;;;;;-0.28;100.00;100023.91;5099511;28;20048;-67
2024/01/31 00:25:40;;;;;;;22.95;11.40;;;;;;;-0.21;100.00;100015.53;5099162;28;20094;-67
2024/01/31 00:28:07;;;;;;;30.48;12.98;;;;;;;-0.08;100.00;100006.88;5099337;28;20052;-66
2024/01/31 00:30:33;;;;;;;22.63;10.85;;;;;;;-0.14;100.00;99980.22;5099346;28;20052;-68
2024/01/31 00:32:59;;;;;;;26.65;12.05;;;;;;;-0.16;100.00;99968.91;5099333;28;20052;-66
2024/01/31 00:35:25;;;;;;;24.83;10.77;;;;;;;0.03;100.00;99996.88;5099054;28;20059;-66
2024/01/31 00:37:53;;;;;;;25.15;11.73;;;;;;;-0.04;100.00;99982.88;5099405;28;20083;-67
2024/01/31 00:40:19;;;;;;;29.90;12.52;;;;;;;0.11;100.00;99982.84;5098947;28;20416;-67
2024/01/31 00:42:45;;;;;;;22.33;11.05;;;;;;;0.16;100.00;99952.34;5099416;28;20052;-65
2024/01/31 00:45:13;;;;;;;30.38;12.77;;;;;;;0.01;100.00;99917.38;5098933;28;20154;-66
2024/01/31 00:47:40;;;;;;;28.70;12.45;;;;;;;0.17;100.00;99905.44;5098870;28;20558;-65
2024/01/31 00:50:07;;;;;;;24.02;12.20;;;;;;;0.08;100.00;99869.34;5098687;28;20048;-67
2024/01/31 00:52:33;;;;;;;26.45;12.68;;;;;;;0.10;100.00;99872.56;5098997;28;20052;-65
2024/01/31 00:54:59;;;;;;;27.30;12.23;;;;;;;0.13;100.00;99851.22;5098855;28;20048;-65
2024/01/31 00:57:25;;;;;;;24.85;11.75;;;;;;;0.02;100.00;99843.50;5098839;28;20162;-67
2024/01/31 00:59:52;;;;;;;20.67;11.18;;;;;;;0.06;100.00;99850.72;5098884;28;20425;-67
2024/01/31 01:02:18;;;;;;;24.95;11.70;;;;;;;0.08;100.00;99840.50;5098787;28;20059;-65
2024/01/31 01:04:44;;;;;;;31.15;13.70;;;;;;;0.10;100.00;99819.47;5098895;28;20059;-66
2024/01/31 01:07:10;;;;;;;29.13;12.75;;;;;;;0.03;100.00;99820.84;5098523;28;20512;-68
2024/01/31 01:09:36;;;;;;;27.20;13.43;;;;;;;-0.10;100.00;99811.47;5098979;28;20075;-65
2024/01/31 01:12:03;;;;;;;25.92;11.55;;;;;;;-0.13;100.00;99847.88;5098493;28;20062;-65
2024/01/31 01:14:29;;;;;;;24.48;11.95;;;;;;;-0.14;100.00;99864.31;5098913;28;20157;-67
2024/01/31 01:16:55;;;;;;;24.85;11.85;;;;;;;-0.32;100.00;99863.06;5098343;28;20083;-65
2024/01/31 01:19:21;;;;;;;28.67;12.18;;;;;;;-0.27;100.00;99898.88;5098593;28;20052;-67
2024/01/31 01:21:47;;;;;;;31.42;12.73;;;;;;;-0.28;100.00;99926.09;5096964;28;20094;-68
2024/01/31 01:24:13;;;;;;;28.30;11.32;;;;;;;-0.21;100.00;99941.97;5098523;28;20058;-66
2024/01/31 01:26:41;;;;;;;29.08;11.95;;;;;;;-0.20;100.00;99938.19;5098580;28;20382;-68
2024/01/31 01:29:07;;;;;;;26.70;12.80;;;;;;;-0.32;100.00;99920.44;5098323;28;20337;-66
2024/01/31 01:31:33;;;;;;;29.48;13.80;;;;;;;-0.34;100.00;99946.84;5098537;28;20131;-68
2024/01/31 01:33:59;;;;;;;30.83;14.00;;;;;;;-0.35;100.00;99963.28;5098265;28;20393;-66
2024/01/31 01:36:25;;;;;;;32.40;14.02;;;;;;;-0.60;100.00;99994.59;5098397;28;20052;-67
2024/01/31 01:38:51;;;;;;;28.98;13.82;;;;;;;-0.58;100.00;100054.34;5098024;28;20066;-66
2024/01/31 01:41:17;;;;;;;29.45;14.10;;;;;;;-0.62;100.00;100095.56;5098513;28;20086;-66
2024/01/31 01:43:44;;;;;;;32.20;14.50;;;;;;;-0.45;100.00;100101.50;5097920;28;20137;-67
2024/01/31 01:46:14;;;;;;;35.67;14.80;;;;;;;-0.38;100.00;100079.69;5098147;28;20048;-67
2024/01/31 01:48:45;;;;;;;38.13;15.63;;;;;;;-0.64;100.00;100085.06;5097945;28;20044;-68
2024/01/31 01:51:14;;;;;;;33.10;15.50;;;;;;;-0.63;100.00;100086.69;5097879;28;20079;-67
2024/01/31 01:53:40;;;;;;;33.95;14.40;;;;;;;-0.50;100.00;100117.66;5097975;28;20087;-68
2024/01/31 01:56:09;;;;;;;32.33;13.55;;;;;;;-0.68;100.00;100105.53;5097780;28;20424;-67
2024/01/31 01:58:36;;;;;;;36.80;13.98;;;;;;;-0.59;100.00;100121.97;5097922;28;20077;-66
2024/01/31 02:01:04;;;;;;;31.20;14.15;;;;;;;-0.45;100.00;100111.47;5097680;28;20087;-68
2024/01/31 02:03:30;;;;;;;30.65;13.18;;;;;;;-0.36;100.00;100080.22;5098019;28;20052;-67
2024/01/31 02:05:57;;;;;;;36.83;16.15;;;;;;;-0.60;100.00;100034.97;5097601;28;20079;-67
2024/01/31 02:08:26;;;;;;;33.03;13.63;;;;;;;-0.95;100.00;100062.66;5098085;28;20051;-66
2024/01/31 02:10:52;;;;;;;30.65;14.93;;;;;;;-0.87;100.00;100134.00;5097549;28;20052;-65
2024/01/31 02:13:18;;;;;;;35.95;15.40;;;;;;;-0.84;100.00;100152.34;5097794;28;20080;-68
2024/01/31 02:15:51;;;;;;;30.52;14.30;;;;;;;-0.93;100.00;100140.44;5097508;28;20048;-67
2024/01/31 02:18:18;;;;;;;36.30;16.40;;;;;;;-0.92;100.00;100161.75;5097363;28;20060;-67
2024/01/31 02:20:44;;;;;;;32.08;15.20;;;;;;;-0.93;100.00;100167.38;5097497;28;20055;-68
2024/01/31 02:23:11;;;;;;;31.00;14.93;;;;;;;-1.22;100.00;100182.06;5097522;28;20052;-65
2024/01/31 02:25:37;;;;;;;29.20;13.65;;;;;;;-1.18;100.00;100241.56;5097778;28;20102;-67
2024/01/31 02:28:04;;;;;;;29.70;13.55;;;;;;;-1.29;100.00;100238.00;5097302;28;20055;-65
2024/01/31 02:30:30;;;;;;;29.45;14.00;;;;;;;-1.27;100.00;100270.81;5097714;28;20060;-65
2024/01/31 02:32:56;;;;;;;34.13;15.40;;;;;;;-1.48;100.00;100302.16;5096672;28;20098;-67
2024/01/31 02:35:22;;;;;;;31.33;13.52;;;;;;;-1.20;100.00;100338.69;5097686;28;20051;-65
2024/01/31 02:37:49;;;;;;;28.00;14.25;;;;;;;-1.29;100.00;100344.81;5097007;28;20096;-67
2024/01/31 02:40:16;;;;;;;32.30;15.13;;;;;;;-1.58;100.00;100328.16;5097039;28;20479;-65
2024/01/31 02:42:42;;;;;;;30.20;16.30;;;;;;;-1.79;100.00;100375.56;5097079;28;20139;-68
2024/01/31 02:45:09;;;;;;;33.75;14.68;;;;;;;-1.78;100.00;100404.06;5097021;28;20051;-65
2024/01/31 02:47:35;;;;;;;37.90;16.80;;;;;;;-2.02;100.00;100431.22;5097083;28;20044;-68
2024/01/31 02:50:01;;;;;;;34.03;15.77;;;;;;;-1.62;100.00;100461.50;5096832;28;20059;-65
2024/01/31 02:52:27;;;;;;;41.92;16.77;;;;;;;-1.63;100.00;100449.09;5097173;28;20090;-67
2024/01/31 02:54:53;;;;;;;46.30;18.52;;;;;;;-1.46;100.00;100458.72;5097017;28;20090;-65
2024/01/31 02:57:20;;;;;;;39.15;17.00;;;;;;;-1.44;100.00;100448.50;5097169;28;20044;-66
2024/01/31 02:59:46;;;;;;;37.80;17.25;;;;;;;-1.32;100.00;100428.72;5096841;28;20079;-67
2024/01/31 03:02:14;;;;;;;33.50;15.30;;;;;;;-1.34;100.00;100423.56;5097156;28;20059;-66
2024/01/31 03:04:40;;;;;;;35.42;16.23;;;;;;;-1.30;100.00;100400.50;5096727;28;20152;-66
2024/01/31 03:07:07;;;;;;;35.85;17.38;;;;;;;-1.49;100.00;100375.84;5097126;28;20382;-68
2024/01/31 03:09:33;;;;;;;37.13;17.05;;;;;;;-1.11;100.00;100386.63;5096620;28;20048;-68
2024/01/31 03:11:59;;;;;;;45.55;18.50;;;;;;;-1.20;100.00;100357.53;5096855;28;20396;-65
2024/01/31 03:14:26;;;;;;;36.20;17.95;;;;;;;-1.04;100.00;100344.16;5096684;28;20048;-66
2024/01/31 03:16:52;;;;;;;41.90;17.40;;;;;;;-1.03;100.00;100303.56;5096545;28;20055;-67
2024/01/31 03:19:18;;;;;;;36.15;17.42;;;;;;;-1.10;100.00;100294.06;5096587;28;20143;-65
2024/01/31 03:21:44;;;;;;;37.85;16.38;;;;;;;-1.20;100.00;100301.03;5096594;28;20106;-66
2024/01/31 03:24:12;;;;;;;36.20;15.65;;;;;;;-1.01;100.00;100306.78;5096692;28;20070;-67
2024/01/31 03:26:38;;;;;;;35.28;16.02;;;;;;;-1.07;100.00;100294.34;5096546;28;20074;-67
2024/01/31 03:29:04;;;;;;;38.80;17.75;;;;;;;-1.32;100.00;100278.06;5096744;28;20101;-65
2024/01/31 03:31:31;;;;;;;39.05;16.92;;;;;;;-1.08;100.00;100311.56;5096434;28;20106;-66
2024/01/31 03:33:57;;;;;;;31.10;15.05;;;;;;;-0.94;100.00;100301.16;5096765;28;20417;-67
2024/01/31 03:36:23;;;;;;;32.90;15.13;;;;;;;-1.17;100.00;100266.56;5096279;28;20048;-67
2024/01/31 03:38:49;;;;;;;33.92;16.13;;;;;;;-1.03;100.00;100271.25;5096131;28;20052;-66
2024/01/31 03:41:15;;;;;;;34.83;15.57;;;;;;;-1.26;100.00;100250.94;5096266;28;20087;-67
2024/01/31 03:43:41;;;;;;;32.75;15.95;;;;;;;-1.29;100.00;100258.72;5096431;28;20139;-66
2024/01/31 03:46:08;;;;;;;31.35;15.02;;;;;;;-1.30;100.00;100287.50;5099608;28;20051;-65
2024/01/31 03:48:34;;;;;;;26.77;14.13;;;;;;;-1.00;100.00;100300.34;5099950;28;20051;-68
2024/01/31 03:51:00;;;;;;;31.60;16.42;;;;;;;-1.42;100.00;100301.13;5099864;28;20052;-67
2024/01/31 03:53:27;;;;;;;28.63;14.68;;;;;;;-1.34;100.00;100315.97;5099899;28;20333;-65
2024/01/31 03:55:53;;;;;;;29.20;14.00;;;;;;;-0.97;100.00;100342.88;5099996;28;20142;-68
2024/01/31 03:58:19;;;;;;;29.98;13.68;;;;;;;-1.09;100.00;100309.16;5099625;28;20059;-65
2024/01/31 04:00:45;;;;;;;34.17;13.68;;;;;;;-1.17;100.00;100329.28;5100310;28;20083;-67
2024/01/31 04:03:11;;;;;;;29.25;14.60;;;;;;;-1.47;100.00;100327.16;5099596;28;20145;-65
2024/01/31 04:05:38;;;;;;;31.67;14.32;;;;;;;-1.35;100.00;100354.72;5100213;28;20090;-67
2024/01/31 04:08:05;;;;;;;36.45;15.18;;;;;;;-1.30;100.00;100356.63;5099516;28;20423;-66
2024/01/31 04:10:31;;;;;;;34.33;14.80;;;;;;;-0.98;100.00;100359.28;5099727;28;20439;-65
2024/01/31 04:12:57;;;;;;;33.30;14.13;;;;;;;-0.90;100.00;100341.81;5099748;28;20090;-65
2024/01/31 04:15:23;;;;;;;30.88;14.18;;;;;;;-1.02;100.00;100313.22;5099384;28;20094;-67
2024/01/31 04:17:49;;;;;;;32.90;14.75;;;;;;;-1.22;100.00;100305.84;5099516;28;20412;-65
2024/01/31 04:20:16;;;;;;;38.40;14.00;;;;;;;-0.92;100.00;100317.06;5099393;28;20094;-65
2024/01/31 04:22:42;;;;;;;34.42;15.52;;;;;;;-0.75;100.00;100296.97;5099653;28;20056;-65
2024/01/31 04:25:09;;;;;;;35.70;14.98;;;;;;;-0.69;100.00;100233.16;5099241;28;20067;-64
2024/01/31 04:27:36;;;;;;;35.97;16.55;;;;;;;-0.97;100.00;100185.94;5099606;28;20059;-67
2024/01/31 04:30:02;;;;;;;34.28;15.60;;;;;;;-1.31;100.00;100189.00;5099139;28;20052;-65
2024/01/31 04:32:28;;;;;;;38.08;16.00;;;;;;;-1.06;100.00;100238.66;5099674;28;20055;-66
2024/01/31 04:34:54;;;;;;;33.13;15.82;;;;;;;-0.94;100.00;100228.47;5099041;28;20073;-65
2024/01/31 04:37:20;;;;;;;41.10;16.65;;;;;;;-1.16;100.00;100185.59;5099218;28;20086;-67
2024/01/31 04:39:50;;;;;;;36.45;15.95;;;;;;;-0.96;100.00;100228.75;5098877;28;20088;-67
2024/01/31 04:42:16;;;;;;;29.70;15.30;;;;;;;-1.29;100.00;100223.75;5098917;28;20382;-68
2024/01/31 04:44:45;;;;;;;35.10;16.05;;;;;;;-1.19;100.00;100256.09;5099180;28;20083;-67
2024/01/31 04:47:11;;;;;;;38.63;17.20;;;;;;;-1.17;100.00;100248.53;5098866;28;20059;-67
2024/01/31 04:49:37;;;;;;;29.95;15.65;;;;;;;-1.33;100.00;100254.91;5098894;28;20081;-65
2024/01/31 04:52:04;;;;;;;37.05;17.35;;;;;;;-1.15;100.00;100270.63;5098893;28;20044;-67
2024/01/31 04:54:30;;;;;;;36.15;17.85;;;;;;;-1.17;100.00;100253.13;5099113;28;20048;-67
2024/01/31 04:56:57;;;;;;;43.22;18.67;;;;;;;-0.97;100.00;100256.75;5098363;28;20044;-64
2024/01/31 04:59:23;;;;;;;40.22;16.30;;;;;;;-1.33;100.00;100225.31;5098904;28;20377;-66
2024/01/31 05:01:49;;;;;;;51.05;19.33;;;;;;;-1.16;100.00;100244.81;5098434;28;20052;-67
2024/01/31 05:04:15;;;;;;;41.03;17.85;;;;;;;-1.51;100.00;100248.06;5098961;28;20329;-66
2024/01/31 05:06:42;;;;;;;46.25;20.23;;;;;;;-1.03;100.00;100279.31;5098297;28;20074;-65
2024/01/31 05:09:08;;;;;;;48.53;20.90;;;;;;;-0.92;100.00;100255.97;5098325;28;20059;-68
2024/01/31 05:11:34;;;;;;;40.05;18.08;;;;;;;-0.91;100.00;100211.00;5098304;28;20055;-65
2024/01/31 05:14:01;;;;;;;35.63;16.73;;;;;;;-0.86;100.00;100192.19;5098325;28;20047;-65
2024/01/31 05:16:27;;;;;;;36.67;17.45;;;;;;;-0.80;100.00;100166.88;5098186;28;20062;-67
2024/01/31 05:18:53;;;;;;;35.50;16.23;;;;;;;-0.62;100.00;100146.75;5098045;28;20094;-67
2024/01/31 05:21:19;;;;;;;32.53;14.20;;;;;;;-0.50;100.00;100128.44;5097962;28;20386;-64
2024/01/31 05:23:47;;;;;;;37.70;16.75;;;;;;;-0.27;100.00;100086.66;5097932;28;20409;-65
2024/01/31 05:26:13;;;;;;;34.53;15.68;;;;;;;-0.20;100.00;100025.25;5098442;28;20052;-65
2024/01/31 05:28:39;;;;;;;39.13;17.48;;;;;;;-0.24;100.00;99941.41;5097963;28;20079;-66
2024/01/31 05:31:06;;;;;;;46.72;18.23;;;;;;;-0.48;100.00;99879.25;5097868;28;20048;-65
2024/01/31 05:33:32;;;;;;;41.45;18.10;;;;;;;-0.43;100.00;99866.84;5097831;28;20078;-66
2024/01/31 05:35:59;;;;;;;43.63;17.77;;;;;;;-0.44;100.00;99855.28;5097902;28;20055;-66
2024/01/31 05:38:25;;;;;;;37.47;17.98;;;;;;;-0.48;100.00;99830.78;5097887;28;20056;-64
2024/01/31 05:40:51;;;;;;;40.97;17.13;;;;;;;-0.45;100.00;99829.44;5097679;28;20408;-66
2024/01/31 05:43:18;;;;;;;42.78;17.33;;;;;;;-0.40;100.00;99833.97;5097873;28;20132;-66
2024/01/31 05:45:44;;;;;;;39.35;18.38;;;;;;;-0.44;100.00;99806.78;5097932;28;20052;-66
2024/01/31 05:48:10;;;;;;;41.58;17.55;;;;;;;-0.46;100.00;99792.81;5098226;28;20062;-65
2024/01/31 05:50:37;;;;;;;34.80;17.23;;;;;;;-0.57;100.00;99778.56;5097722;28;20443;-66
2024/01/31 05:53:03;;;;;;;40.85;16.13;;;;;;;-0.52;100.00;99797.41;5097939;28;20044;-64
2024/01/31 05:55:29;;;;;;;31.40;14.57;;;;;;;-0.46;100.00;99822.44;5097778;28;20083;-66
2024/01/31 05:57:55;;;;;;;34.78;17.35;;;;;;;-0.51;100.00;99796.31;5097722;28;20048;-66
2024/01/31 06:00:21;;;;;;;34.85;16.80;;;;;;;-0.58;100.00;99797.69;5097459;28;20052;-65
2024/01/31 06:02:47;;;;;;;29.95;15.48;;;;;;;-0.48;100.00;99822.69;5097334;28;20063;-66
2024/01/31 06:05:14;;;;;;;37.25;16.52;;;;;;;-0.30;100.00;99809.69;5097257;28;20323;-65
2024/01/31 06:07:40;;;;;;;35.53;15.50;;;;;;;-0.38;100.00;99740.22;5096639;28;20056;-67
2024/01/31 06:10:07;;;;;;;43.42;18.45;;;;;;;-0.48;100.00;99728.44;5097587;28;20048;-64
2024/01/31 06:12:35;;;;;;;38.90;17.00;;;;;;;-0.26;100.00;99748.78;5097273;28;20477;-66
2024/01/31 06:15:01;;;;;;;37.65;19.40;;;;;;;-0.22;100.00;99714.00;5097564;28;20063;-66
2024/01/31 06:17:27;;;;;;;50.92;17.13;;;;;;;-0.20;100.00;99688.41;5097290;28;20340;-66
2024/01/31 06:19:53;;;;;;;41.45;19.63;;;;;;;-0.17;100.00;99636.59;5097433;28;20052;-65
2024/01/31 06:22:21;;;;;;;39.83;18.73;;;;;;;-0.10;100.00;99603.94;5097124;28;20306;-64
2024/01/31 06:24:47;;;;;;;43.40;19.92;;;;;;;-0.18;100.00;99583.81;5097639;28;20059;-63
2024/01/31 06:27:14;;;;;;;48.22;18.75;;;;;;;-0.02;100.00;99563.72;5096980;28;20059;-66
2024/01/31 06:29:40;;;;;;;51.13;20.65;;;;;;;0.14;100.00;99523.13;5097364;28;20152;-65
2024/01/31 06:32:07;;;;;;;68.80;22.58;;;;;;;0.10;100.00;99466.28;5097061;28;20105;-67
2024/01/31 06:34:33;;;;;;;52.08;23.17;;;;;;;0.01;100.00;99437.56;5097338;28;20084;-67
2024/01/31 06:36:59;;;;;;;48.53;23.30;;;;;;;0.01;100.00;99424.09;5097165;28;20381;-63
2024/01/31 06:39:26;;;;;;;54.55;22.98;;;;;;;0.00;100.00;99431.38;5096819;28;20087;-65
2024/01/31 06:41:52;;;;;;;57.30;24.20;;;;;;;-0.06;100.00;99417.16;5097364;28;20091;-65
2024/01/31 06:44:18;;;;;;;65.20;28.35;;;;;;;0.06;100.00;99450.97;5096898;28;20087;-66
2024/01/31 06:46:47;;;;;;;69.80;29.80;;;;;;;0.26;100.00;99436.41;5096900;28;20047;-64
2024/01/31 06:49:13;;;;;;;82.65;31.08;;;;;;;0.33;100.00;99385.63;5096699;28;20056;-64
2024/01/31 06:51:39;;;;;;;75.03;30.48;;;;;;;0.37;100.00;99327.34;5096794;28;20059;-65
2024/01/31 06:54:05;;;;;;;66.47;31.52;;;;;;;0.33;100.00;99291.22;5096835;28;20059;-64
2024/01/31 06:56:32;;;;;;;67.90;30.98;;;;;;;0.60;100.00;99271.63;5097092;28;20428;-64
2024/01/31 06:58:58;;;;;;;65.57;32.65;;;;;;;0.89;100.00;99225.50;5096078;28;20408;-66
2024/01/31 07:01:24;;;;;;;72.40;32.13;;;;;;;1.30;100.00;99159.88;5096214;28;20066;-66
2024/01/31 07:03:51;;;;;;;63.63;27.17;;;;;;;1.54;100.00;99084.78;5096421;28;20052;-66
2024/01/31 07:06:18;;;;;;;48.72;24.50;;;;;;;1.93;100.00;99037.31;5096642;28;20052;-67
2024/01/31 07:08:44;;;;;;;56.63;23.65;;;;;;;2.24;100.00;99041.91;5096287;28;20067;-65
2024/01/31 07:11:11;;;;;;;48.30;22.77;;;;;;;2.47;100.00;99073.19;5096377;28;20435;-66
2024/01/31 07:13:39;;;;;;;56.72;21.95;;;;;;;2.68;100.00;99088.84;5096197;28;20054;-65
2024/01/31 07:16:08;;;;;;;51.33;18.48;;;;;;;2.52;100.00;99129.06;5096169;28;20059;-65
2024/01/31 07:18:34;;;;;;;48.30;18.70;;;;;;;2.85;100.00;99132.22;5096438;28;20298;-64
2024/01/31 07:21:00;;;;;;;39.55;18.95;;;;;;;2.92;100.00;99164.25;5096018;28;20044;-66
2024/01/31 07:23:26;;;;;;;32.50;16.98;;;;;;;2.88;100.00;99195.78;5096455;28;20044;-66
2024/01/31 07:25:52;;;;;;;36.28;16.42;;;;;;;2.99;100.00;99194.38;5096009;28;20047;-65
2024/01/31 07:28:20;;;;;;;28.83;15.02;;;;;;;2.85;100.00;99170.13;5096012;28;20060;-65
2024/01/31 07:30:47;;;;;;;32.28;15.60;;;;;;;3.28;100.00;99196.53;5096016;28;20052;-66
2024/01/31 07:33:13;;;;;;;36.60;15.55;;;;;;;3.31;100.00;99217.59;5095998;28;20433;-65
2024/01/31 07:35:39;;;;;;;32.05;15.68;;;;;;;3.47;100.00;99248.56;5095932;28;20048;-63
2024/01/31 07:38:05;;;;;;;37.35;14.85;;;;;;;3.98;100.00;99314.81;5095520;28;20044;-65
2024/01/31 07:40:31;;;;;;;31.05;14.73;;;;;;;3.86;100.00;99332.81;5096133;28;20392;-65
2024/01/31 07:42:57;;;;;;;36.45;15.52;;;;;;;3.91;100.00;99338.91;5095732;28;20417;-66
2024/01/31 07:45:26;;;;;;;35.83;15.20;;;;;;;4.06;100.00;99369.41;5096058;28;20161;-68
2024/01/31 07:47:53;;;;;;;34.88;16.30;;;;;;;4.15;100.00;99402.78;5095586;28;20066;-67
2024/01/31 07:50:19;;;;;;;40.25;15.70;;;;;;;3.90;100.00;99405.13;5095561;28;20091;-69
2024/01/31 07:52:45;;;;;;;42.75;15.23;;;;;;;4.01;100.00;99411.06;5095431;28;20344;-69
2024/01/31 07:55:12;;;;;;;32.88;15.57;;;;;;;4.23;100.00;99391.13;5095989;28;20052;-65
2024/01/31 07:57:39;;;;;;;29.80;14.35;;;;;;;4.38;100.00;99412.41;5095429;28;20132;-67
2024/01/31 08:00:06;;;;;;;32.75;15.07;;;;;;;4.61;100.00;99434.78;5094974;28;20052;-65
2024/01/31 08:02:33;;;;;;;32.20;15.35;;;;;;;4.98;100.00;99453.50;5095354;28;20130;-66
2024/01/31 08:04:59;;;;;;;30.48;15.50;;;;;;;4.89;100.00;99476.00;5095352;28;20404;-69
2024/01/31 08:07:26;;;;;;;29.23;14.80;;;;;;;5.18;100.00;99482.75;5095404;28;20048;-67
2024/01/31 08:09:52;;;;;;;31.58;15.30;;;;;;;5.14;100.00;99488.03;5095521;28;20379;-69
2024/01/31 08:12:18;;;;;;;29.45;16.05;;;;;;;5.25;100.00;99499.34;5095386;28;20094;-68
2024/01/31 08:14:45;;;;;;;32.25;16.35;;;;;;;5.66;100.00;99517.88;5094964;28;20044;-69
2024/01/31 08:17:11;;;;;;;40.30;15.82;;;;;;;5.82;100.00;99526.28;5095780;28;20064;-67
2024/01/31 08:19:37;;;;;;;27.15;15.27;;;;;;;5.91;100.00;99529.00;5095471;28;20421;-68
2024/01/31 08:22:04;;;;;;;29.23;15.57;;;;;;;5.75;100.00;99546.97;5095872;28;20192;-68
2024/01/31 08:24:30;;;;;;;32.78;15.77;;;;;;;5.60;100.00;99549.06;5095667;28;20074;-66
2024/01/31 08:26:56;;;;;;;32.95;16.05;;;;;;;5.49;100.00;99539.63;5095333;28;20146;-68
2024/01/31 08:29:23;;;;;;;34.00;17.52;;;;;;;5.52;100.00;99527.31;5095271;28;20087;-68
2024/01/31 08:31:49;;;;;;;31.88;14.48;;;;;;;5.58;100.00;99520.59;5098321;28;20087;-66
2024/01/31 08:34:17;;;;;;;32.63;15.63;;;;;;;5.38;100.00;99522.84;5098915;28;20048;-67
2024/01/31 08:36:43;;;;;;;32.33;15.88;;;;;;;5.42;100.00;99531.16;5098894;28;20355;-66
2024/01/31 08:39:09;;;;;;;32.10;15.25;;;;;;;5.08;100.00;99518.41;5098963;28;20052;-67
2024/01/31 08:41:36;;;;;;;31.75;15.63;;;;;;;5.07;100.00;99495.84;5098640;28;20169;-69
2024/01/31 08:44:02;;;;;;;29.98;15.55;;;;;;;5.23;100.00;99498.06;5098550;28;20063;-65
2024/01/31 08:46:28;;;;;;;36.78;17.23;;;;;;;5.24;100.00;99505.91;5098693;28;20131;-68
2024/01/31 08:48:54;;;;;;;32.05;15.90;;;;;;;5.51;100.00;99501.25;5099198;28;20059;-66
2024/01/31 08:51:20;;;;;;;34.78;16.13;;;;;;;5.65;100.00;99512.75;5099069;28;20079;-68
2024/01/31 08:53:46;;;;;;;34.80;16.67;;;;;;;5.93;100.00;99512.38;5098393;28;20456;-68
2024/01/31 08:56:14;;;;;;;31.33;15.73;;;;;;;5.92;100.00;99524.34;5098349;28;20063;-68
2024/01/31 08:58:40;;;;;;;38.15;18.17;;;;;;;5.94;100.00;99538.47;5098066;28;20052;-66
2024/01/31 09:01:07;;;;;;;33.30;16.10;;;;;;;5.74;100.00;99520.88;5098256;28;20102;-68
2024/01/31 09:03:33;;;;;;;34.80;17.05;;;;;;;5.70;100.00;99511.75;5098279;28;20367;-68
2024/01/31 09:05:59;;;;;;;38.80;17.60;;;;;;;5.45;100.00;99497.91;5098134;28;20153;-67
2024/01/31 09:08:25;;;;;;;30.42;15.25;;;;;;;5.66;100.00;99485.22;5097822;28;20056;-65
2024/01/31 09:10:51;;;;;;;32.80;16.48;;;;;;;5.47;100.00;99484.78;5098073;28;20051;-67
2024/01/31 09:13:18;;;;;;;34.05;16.25;;;;;;;5.22;100.00;99480.19;5097831;28;20047;-65
2024/01/31 09:15:44;;;;;;;35.60;18.40;;;;;;;4.87;100.00;99478.28;5098198;28;20060;-65
2024/01/31 09:18:10;;;;;;;33.47;18.00;;;;;;;4.86;100.00;99454.91;5097917;28;20047;-68
2024/01/31 09:20:36;;;;;;;33.92;17.25;;;;;;;4.82;100.00;99415.16;5098400;28;20424;-66
2024/01/31 09:23:02;;;;;;;30.27;16.48;;;;;;;4.56;100.00;99412.41;5098289;28;20328;-66
2024/01/31 09:25:29;;;;;;;31.70;15.75;;;;;;;4.72;100.00;99391.81;5098146;28;20067;-69
2024/01/31 09:27:55;;;;;;;32.63;16.55;;;;;;;4.68;100.00;99394.38;5098234;28;20323;-67
2024/01/31 09:30:22;;;;;;;36.25;17.10;;;;;;;4.72;100.00;99403.47;5097732;28;20043;-67
2024/01/31 09:32:48;;;;;;;34.05;16.08;;;;;;;4.85;100.00;99401.72;5098545;28;20310;-69
2024/01/31 09:35:14;;;;;;;38.83;16.20;;;;;;;4.91;100.00;99405.06;5097931;28;20409;-66
2024/01/31 09:37:40;;;;;;;38.15;15.70;;;;;;;4.83;100.00;99397.72;5098150;28;20098;-67
2024/01/31 09:40:08;;;;;;;31.27;15.38;;;;;;;4.88;100.00;99401.06;5097856;28;20087;-67
2024/01/31 09:42:34;;;;;;;34.45;16.15;;;;;;;4.99;100.00;99398.81;5096900;28;20048;-66
2024/01/31 09:45:01;;;;;;;35.42;16.02;;;;;;;4.96;100.00;99396.75;5097776;28;20392;-68
2024/01/31 09:47:31;;;;;;;35.25;16.15;;;;;;;5.05;100.00;99408.41;5098196;28;20044;-68
2024/01/31 09:49:57;;;;;;;33.42;16.38;;;;;;;5.14;100.00;99420.06;5097296;28;20384;-66
2024/01/31 09:52:27;;;;;;;37.30;16.48;;;;;;;5.17;100.00;99408.56;5097623;28;20075;-68
2024/01/31 09:54:57;;;;;;;34.90;16.05;;;;;;;5.23;100.00;99408.38;5097615;28;20141;-66
2024/01/31 09:57:24;;;;;;;40.13;18.08;;;;;;;5.27;100.00;99409.34;5097942;28;20052;-69
2024/01/31 09:59:50;;;;;;;38.28;18.30;;;;;;;5.25;100.00;99403.44;5097537;28;20052;-68
2024/01/31 10:02:17;;;;;;;36.45;16.40;;;;;;;5.42;100.00;99390.56;5097491;28;20056;-66
2024/01/31 10:04:47;;;;;;;36.72;16.27;;;;;;;5.37;100.00;99401.63;5097406;28;20396;-66
2024/01/31 10:07:13;;;;;;;34.55;16.70;;;;;;;5.46;100.00;99409.75;5097042;28;20105;-65
2024/01/31 10:09:39;;;;;;;32.00;15.57;;;;;;;5.69;100.00;99404.88;5097621;28;20109;-67
2024/01/31 10:12:06;;;;;;;33.80;17.05;;;;;;;5.65;100.00;99421.06;5097142;28;20044;-67
2024/01/31 10:14:33;;;;;;;33.58;16.20;;;;;;;5.74;100.00;99422.97;5097688;28;20300;-66
2024/01/31 10:16:59;;;;;;;33.22;16.48;;;;;;;5.60;100.00;99407.66;5097426;28;20099;-68
2024/01/31 10:19:26;;;;;;;36.00;16.98;;;;;;;5.86;100.00;99417.59;5096828;28;20044;-65
2024/01/31 10:21:52;;;;;;;33.30;15.82;;;;;;;5.96;100.00;99414.53;5097334;28;20087;-66
2024/01/31 10:24:18;;;;;;;35.13;16.67;;;;;;;5.79;100.00;99401.00;5096983;28;20070;-67
2024/01/31 10:26:44;;;;;;;30.63;16.55;;;;;;;6.02;100.00;99409.72;5097482;28;20059;-69
2024/01/31 10:29:11;;;;;;;34.63;17.38;;;;;;;5.68;100.00;99427.78;5097389;28;20051;-68
2024/01/31 10:31:37;;;;;;;36.30;17.58;;;;;;;5.42;100.00;99420.47;5097292;28;20044;-65
2024/01/31 10:34:04;;;;;;;33.47;17.45;;;;;;;5.85;100.00;99411.38;5096767;28;20056;-66
2024/01/31 10:36:31;;;;;;;37.75;17.63;;;;;;;5.90;100.00;99411.19;5097032;28;20142;-67
2024/01/31 10:38:58;;;;;;;46.10;17.80;;;;;;;5.48;100.00;99379.53;5096784;28;20044;-69
2024/01/31 10:41:26;;;;;;;38.85;17.40;;;;;;;5.72;100.00;99390.63;5097013;28;20047;-66
2024/01/31 10:43:54;;;;;;;34.22;16.98;;;;;;;5.89;100.00;99385.09;5096417;28;20094;-67
2024/01/31 10:46:20;;;;;;;35.45;16.45;;;;;;;6.25;100.00;99399.34;5096562;28;20059;-69
2024/01/31 10:48:46;;;;;;;33.03;15.25;;;;;;;6.25;100.00;99399.34;5096655;28;20144;-68
2024/01/31 10:51:13;;;;;;;32.10;15.02;;;;;;;6.30;100.00;99389.06;5096563;28;20048;-66
2024/01/31 10:53:41;;;;;;;31.48;16.08;;;;;;;6.66;100.00;99406.72;5096136;28;20080;-66
2024/01/31 10:56:10;;;;;;;29.38;14.73;;;;;;;8.39;100.00;99411.41;5096313;28;20048;-66
2024/01/31 10:58:36;;;;;;;36.65;18.38;;;;;;;7.44;100.00;99459.78;5096700;28;20086;-64
2024/01/31 11:01:04;;;;;;;37.00;17.45;;;;;;;7.45;100.00;99469.53;5096282;28;20099;-67
2024/01/31 11:03:30;;;;;;;36.05;18.17;;;;;;;7.07;100.00;99463.16;5096642;28;20055;-66
2024/01/31 11:05:56;;;;;;;41.38;17.38;;;;;;;6.89;100.00;99458.97;5096559;28;20145;-65